Latest Weather Observations for Norseman Airport

IDW60801

Issued at 2:35 pm WST Thursday 27 November 2014 (issued every 30 minutes, with the page automatically refreshed every 10 minutes)

About weather observations | Map of weather stations | Latest weather observations for WA | Other Formats
Station Details ID: 012009 Name: NORSEMAN AERO Lat: -32.21 Lon: 121.75 Height: 262.5 m
Data from the previous 72 hours. | See also: Recent months at Norseman Airport
Date/Time
WST
Temp
°C
App
Temp
°C
Dew
Point
Rel
Hum
%
Delta-T
°C
Wind Press
QNH
hPa
Press
MSL
hPa
Rain
since 9 am
mm
Dir
 
Spd
km/h
Gust
km/h
Spd
kts
Gust
kts
27/02:30pm 27.7 24.3 10.4 34 9.9 E 19 28 10 15 1012.5 1011.6 0.0
27/02:00pm 27.0 23.4 9.8 34 9.7 ENE 19 30 10 16 1013.0 1012.1 0.0
27/01:30pm 26.1 23.1 9.4 35 9.3 ENE 15 20 8 11 1013.4 1012.5 0.0
27/01:00pm 25.8 23.4 10.0 37 8.9 E 13 17 7 9 1013.7 1012.8 0.0
27/12:30pm 25.2 22.8 9.9 38 8.5 NE 13 20 7 11 1013.9 1013.0 0.0
27/12:00pm 25.0 22.1 9.7 38 8.5 E 15 19 8 10 1014.1 1013.2 0.0
27/11:30am 24.0 21.6 9.9 41 7.8 ENE 13 19 7 10 1014.4 1013.5 0.0
27/11:00am 23.7 20.3 9.3 40 7.9 NE 17 24 9 13 1014.9 1014.0 0.0
27/10:30am 23.1 20.2 9.8 43 7.3 NE 15 20 8 11 1015.5 1014.6 0.0
27/10:00am 22.3 19.4 9.5 44 7.0 ENE 15 20 8 11 1015.7 1014.8 0.0
27/09:30am 21.2 18.7 9.8 48 6.2 NE 13 17 7 9 1015.7 1014.8 0.0
27/09:00am 20.6 17.9 10.4 52 5.6 NE 15 20 8 11 1015.9 1015.0 0.0
27/08:30am 19.8 16.2 10.0 53 5.3 NE 19 26 10 14 1016.0 1015.1 0.0
27/08:00am 19.3 16.3 10.6 57 4.8 ENE 17 22 9 12 1016.2 1015.3 0.0
27/07:30am 18.4 15.0 10.5 60 4.3 ENE 19 24 10 13 1016.7 1015.8 0.0
27/07:00am 18.0 15.4 10.6 62 4.0 ENE 15 19 8 10 1016.9 1016.0 0.0
27/06:30am 17.2 14.9 10.6 65 3.6 NNE 13 17 7 9 1017.2 1016.3 0.0
27/06:00am 17.1 14.8 10.5 65 3.6 NE 13 17 7 9 1016.6 1015.7 0.0
27/05:30am 16.9 15.0 10.5 66 3.5 ENE 11 20 6 11 1016.2 1015.3 0.0
27/05:00am 16.7 14.4 10.3 66 3.4 ENE 13 17 7 9 1016.0 1015.1 0.0
27/04:30am 16.8 15.2 10.2 65 3.5 E 9 13 5 7 1016.1 1015.2 0.0
27/04:00am 17.2 15.6 10.3 64 3.7 ENE 9 13 5 7 1016.1 1015.2 0.0
27/03:30am 17.5 15.9 10.1 62 4.0 ENE 9 13 5 7 1016.1 1015.2 0.0
27/03:00am 17.5 15.1 10.1 62 4.0 ENE 13 17 7 9 1015.5 1014.6 0.0
27/02:30am 17.7 14.2 10.1 61 4.1 ENE 19 28 10 15 1015.0 1014.1 0.0
27/02:00am 18.0 14.4 9.9 59 4.3 E 19 28 10 15 1014.6 1013.7 0.0
27/01:30am 18.5 16.1 10.1 58 4.5 ENE 13 24 7 13 1014.6 1013.7 0.0
27/01:00am 18.9 15.8 10.2 57 4.7 ENE 17 26 9 14 1015.0 1014.1 0.0
27/12:30am 19.3 16.2 10.3 56 4.9 ENE 17 30 9 16 1014.9 1014.0 0.0
27/12:00am 20.0 16.0 10.4 54 5.3 E 22 32 12 17 1014.8 1013.9 0.0
 
Date/Time
WST
Temp
°C
App
Temp
°C
Dew
Point
Rel
Hum
%
Delta-T
°C
Wind Press
QNH
hPa
Press
MSL
hPa
Rain
since 9 am
mm
Dir
 
Spd
km/h
Gust
km/h
Spd
kts
Gust
kts
26/11:30pm 20.8 16.4 10.3 51 5.8 E 24 39 13 21 1015.0 1014.1 0.0
26/11:00pm 21.7 17.6 10.2 48 6.3 E 22 39 12 21 1015.3 1014.3 0.0
26/10:30pm 22.2 18.1 8.7 42 7.3 E 20 26 11 14 1015.5 1014.6 0.0
26/10:00pm 22.7 19.0 6.5 35 8.4 E 15 24 8 13 1015.7 1014.8 0.0
26/09:30pm 23.4 19.7 6.2 33 8.9 E 15 20 8 11 1016.1 1015.2 0.0
26/09:00pm 24.0 19.8 5.8 31 9.4 E 17 24 9 13 1016.0 1015.1 0.0
26/08:30pm 24.2 20.3 5.5 30 9.6 E 15 20 8 11 1015.8 1014.9 0.0
26/08:00pm 24.7 20.7 5.0 28 10.0 E 15 20 8 11 1015.2 1014.2 0.0
26/07:30pm 25.2 21.9 4.3 26 10.6 E 11 17 6 9 1015.2 1014.2 0.0
26/07:00pm 26.2 22.5 4.6 25 11.0 E 13 17 7 9 1014.9 1014.0 0.0
26/06:30pm 27.1 23.5 4.8 24 11.5 E 13 20 7 11 1014.5 1013.6 0.0
26/06:00pm 27.9 24.0 5.5 24 11.7 E 15 24 8 13 1014.6 1013.7 0.0
26/05:30pm 28.6 23.0 5.5 23 12.2 NE 24 32 13 17 1014.6 1013.7 0.0
26/05:00pm 30.1 25.1 4.7 20 13.3 ENE 20 28 11 15 1014.5 1013.6 0.0
26/04:30pm 29.7 24.7 4.4 20 13.2 NE 20 30 11 16 1014.7 1013.8 0.0
26/04:00pm 30.5 25.9 5.7 21 13.2 E 19 24 10 13 1014.8 1013.9 0.0
26/03:30pm 29.8 25.8 5.1 21 13.0 ENE 15 26 8 14 1015.2 1014.2 0.0
26/03:00pm 30.0 25.6 4.6 20 13.3 ENE 17 30 9 16 1015.3 1014.3 0.0
26/02:30pm 29.7 24.7 4.4 20 13.2 NE 20 26 11 14 1015.4 1014.5 0.0
26/02:00pm 30.0 25.3 5.3 21 13.1 NE 19 32 10 17 1015.6 1014.7 0.0
26/01:30pm 29.5 24.7 5.6 22 12.7 NE 20 30 11 16 1015.8 1014.9 0.0
26/01:00pm 30.1 25.5 6.7 23 12.7 E 20 30 11 16 1016.5 1015.6 0.0
26/12:30pm 28.4 24.2 5.9 24 11.9 ENE 17 26 9 14 1016.9 1016.0 0.0
26/12:00pm 28.2 23.3 6.9 26 11.4 E 22 32 12 17 1017.5 1016.6 0.0
26/11:30am 27.9 22.8 7.7 28 11.0 ENE 24 39 13 21 1018.1 1017.2 0.0
26/11:00am 26.0 21.5 7.1 30 10.1 ENE 20 32 11 17 1018.6 1017.8 0.0
26/10:30am 25.7 21.6 7.8 32 9.7 NE 19 32 10 17 1019.2 1018.3 0.0
26/10:00am 24.9 20.8 8.8 36 8.8 ENE 20 32 11 17 1019.6 1018.7 0.0
26/09:30am 23.8 19.4 9.0 39 8.1 NNE 22 30 12 16 1020.1 1019.2 0.0
26/09:00am 21.6 17.6 9.2 45 6.7 ENE 20 28 11 15 1020.2 1019.3 0.0
26/08:30am 20.2 15.5 9.2 49 5.9 NE 24 35 13 19 1020.7 1019.8 0.0
26/08:00am 19.8 15.9 9.4 51 5.6 NE 20 26 11 14 1020.9 1020.0 0.0
26/07:30am 18.7 14.1 9.8 56 4.8 NE 24 32 13 17 1021.2 1020.3 0.0
26/07:00am 17.1 12.6 10.0 63 3.8 NNE 24 32 13 17 1021.5 1020.6 0.0
26/06:30am 15.8 12.0 9.7 67 3.2 NE 20 30 11 16 1021.0 1020.1 0.0
26/06:00am 14.4 10.5 9.4 72 2.6 NE 20 28 11 15 1020.7 1019.8 0.0
26/05:30am 13.3 10.7 9.2 76 2.1 ENE 13 22 7 12 1020.5 1019.6 0.0
26/05:00am 12.5 9.8 9.0 79 1.8 ENE 13 17 7 9 1020.4 1019.5 0.0
26/04:30am 12.5 10.2 9.0 79 1.8 ENE 11 19 6 10 1020.4 1019.5 0.0
26/04:00am 12.6 10.3 8.9 78 1.9 ENE 11 17 6 9 1020.4 1019.5 0.0
26/03:30am 12.9 10.2 8.8 76 2.1 ENE 13 17 7 9 1020.2 1019.3 0.0
26/03:00am 13.2 10.5 8.9 75 2.2 ENE 13 19 7 10 1020.0 1019.1 0.0
26/02:30am 13.4 10.7 8.9 74 2.3 NE 13 19 7 10 1020.1 1019.2 0.0
26/02:00am 13.7 11.0 9.0 73 2.4 ENE 13 20 7 11 1019.7 1018.8 0.0
26/01:30am 14.2 11.1 9.0 71 2.7 E 15 20 8 11 1019.7 1018.8 0.0
26/01:00am 14.5 11.8 9.1 70 2.8 E 13 20 7 11 1019.6 1018.7 0.0
26/12:30am 15.1 12.1 9.2 68 3.1 ESE 15 24 8 13 1019.9 1019.0 0.0
26/12:00am 15.8 13.6 9.2 65 3.4 E 11 19 6 10 1019.9 1019.0 0.0
 
Date/Time
WST
Temp
°C
App
Temp
°C
Dew
Point
Rel
Hum
%
Delta-T
°C
Wind Press
QNH
hPa
Press
MSL
hPa
Rain
since 9 am
mm
Dir
 
Spd
km/h
Gust
km/h
Spd
kts
Gust
kts
25/11:30pm 16.6 14.8 9.3 62 3.8 E 9 17 5 9 1020.1 1019.2 0.0
25/11:00pm 17.3 14.7 9.2 59 4.3 ESE 13 24 7 13 1020.0 1019.1 0.0
25/10:30pm 18.5 14.8 9.6 56 4.8 ESE 19 32 10 17 1019.8 1018.9 0.0
25/10:00pm 19.4 16.1 9.6 53 5.3 ESE 17 30 9 16 1019.5 1018.6 0.0
25/09:30pm 20.3 16.6 9.5 50 5.8 ESE 19 28 10 15 1019.4 1018.5 0.0
25/09:00pm 20.4 16.7 9.6 50 5.8 SE 19 30 10 16 1018.9 1018.1 0.0
25/08:30pm 21.2 16.8 9.1 46 6.5 SSE 22 37 12 20 1018.4 1017.5 0.0
25/08:00pm 23.7 20.3 6.0 32 9.1 SE 13 19 7 10 1018.2 1017.3 0.0
25/07:30pm 23.9 20.6 6.2 32 9.2 SE 13 17 7 9 1018.3 1017.4 0.0
25/07:00pm 24.7 21.7 6.0 30 9.7 SE 11 15 6 8 1018.4 1017.5 0.0
25/06:30pm 26.4 23.7 5.4 26 10.9 ESE 9 13 5 7 1018.4 1017.5 0.0
25/06:00pm 27.6 24.9 5.8 25 11.5 E 9 15 5 8 1018.1 1017.2 0.0
25/05:30pm 27.7 24.9 5.3 24 11.7 NE 9 11 5 6 1017.8 1016.9 0.0
25/05:00pm 28.0 24.9 5.6 24 11.8 ESE 11 22 6 12 1017.7 1016.8 0.0
25/04:30pm 28.3 25.3 5.8 24 11.9 ENE 11 20 6 11 1017.8 1016.9 0.0
25/04:00pm 28.3 26.0 5.8 24 11.9 NE 7 17 4 9 1018.0 1017.1 0.0
25/03:30pm 27.7 24.9 5.3 24 11.7 ESE 9 20 5 11 1018.2 1017.3 0.0
25/03:00pm 27.7 24.9 5.3 24 11.7 S 9 15 5 8 1018.5 1017.6 0.0
25/02:30pm 27.5 24.6 6.3 26 11.2 ESE 11 20 6 11 1018.7 1017.9 0.0
25/02:00pm 26.9 23.6 6.3 27 10.9 NNE 13 24 7 13 1019.0 1018.2 0.0
25/01:30pm 26.8 24.4 6.8 28 10.7 N 9 19 5 10 1019.5 1018.6 0.0
25/01:00pm 25.9 23.0 6.5 29 10.2 NNE 11 19 6 10 1020.0 1019.1 0.0
25/12:30pm 25.9 22.6 6.5 29 10.2 E 13 22 7 12 1020.6 1019.7 0.0
25/12:00pm 25.1 21.4 6.3 30 9.8 ENE 15 28 8 15 1021.1 1020.2 0.0
25/11:30am 24.5 21.9 7.6 34 9.0 N 11 20 6 11 1021.5 1020.6 0.0
25/11:00am 23.2 19.8 7.7 37 8.2 ENE 15 22 8 12 1022.0 1021.2 0.0
25/10:30am 22.0 19.0 7.8 40 7.5 N 13 24 7 13 1022.4 1021.6 0.0
25/10:00am 21.7 18.7 7.9 41 7.3 NE 13 20 7 11 1022.7 1021.9 0.0
25/09:30am 20.5 17.1 7.8 44 6.6 N 15 26 8 14 1022.7 1021.9 0.0
25/09:00am 19.8 16.3 8.8 49 5.8 NE 17 26 9 14 1023.0 1022.2 0.0
25/08:30am 17.8 14.1 8.1 53 5.0 NE 17 26 9 14 1023.3 1022.4 0.0
25/08:00am 17.0 12.9 7.9 55 4.6 ENE 19 24 10 13 1023.4 1022.5 0.0
25/07:30am 16.0 12.5 8.7 62 3.8 ENE 17 24 9 13 1023.5 1022.6 0.0
25/07:00am 14.0 10.3 8.0 67 3.0 ENE 17 26 9 14 1023.5 1022.6 0.0
25/06:30am 13.6 10.8 8.7 72 2.5 ENE 13 17 7 9 1023.3 1022.4 0.0
25/06:00am 12.4 9.9 8.3 76 2.0 ENE 11 17 6 9 1023.2 1022.3 0.0
25/05:30am 11.3 9.5 8.0 80 1.6 NE 7 9 4 5 1023.2 1022.3 0.0
25/05:00am 10.3 8.6 7.5 83 1.4 E 6 9 3 5 1022.8 1022.0 0.0
25/04:30am 10.3 8.5 7.2 81 1.5 E 6 9 3 5 1022.5 1021.7 0.0
25/04:00am 10.7 8.4 7.4 80 1.6 E 9 13 5 7 1022.1 1021.3 0.0
25/03:30am 10.8 8.7 6.7 76 2.0 E 7 11 4 6 1021.9 1021.0 0.0
25/03:00am 11.2 8.7 6.7 74 2.2 E 9 13 5 7 1022.0 1021.2 0.0
25/02:30am 11.7 8.9 7.0 73 2.3 E 11 17 6 9 1022.0 1021.2 0.0
25/02:00am 12.0 9.6 6.9 71 2.5 E 9 13 5 7 1022.0 1021.2 0.0
25/01:30am 12.1 10.0 6.8 70 2.6 E 7 11 4 6 1022.0 1021.2 0.0
25/01:00am 12.8 10.0 6.8 67 2.9 E 11 19 6 10 1022.3 1021.5 0.0
25/12:30am 13.3 10.5 6.9 65 3.1 E 11 20 6 11 1022.5 1021.7 0.0
25/12:00am 14.0 10.5 7.1 63 3.4 ESE 15 26 8 14 1022.5 1021.7 0.0
 
Date/Time
WST
Temp
°C
App
Temp
°C
Dew
Point
Rel
Hum
%
Delta-T
°C
Wind Press
QNH
hPa
Press
MSL
hPa
Rain
since 9 am
mm
Dir
 
Spd
km/h
Gust
km/h
Spd
kts
Gust
kts
24/11:30pm 14.5 11.4 7.3 62 3.6 ESE 13 20 7 11 1022.6 1021.8 0.0
24/11:00pm 14.8 12.0 7.1 60 3.8 SE 11 17 6 9 1022.8 1022.0 0.0
24/10:30pm 15.0 12.2 7.1 59 3.9 S 11 17 6 9 1022.8 1022.0 0.0
24/10:00pm 15.6 12.1 7.1 57 4.2 S 15 20 8 11 1022.5 1021.7 0.0
24/09:30pm 16.2 12.3 7.2 55 4.5 S 17 24 9 13 1022.4 1021.6 0.0
24/09:00pm 17.0 12.8 7.4 53 4.9 SSE 19 32 10 17 1022.0 1021.2 0.0
24/08:30pm 18.1 12.9 7.2 49 5.6 SSE 24 44 13 24 1021.4 1020.5 0.0
24/08:00pm 19.8 15.0 5.8 40 7.0 SSE 20 30 11 16 1021.1 1020.2 0.0
24/07:30pm 20.4 17.1 4.8 36 7.7 SSE 11 15 6 8 1020.7 1019.8 0.0
24/07:00pm 21.2 18.4 5.1 35 8.0 S 9 13 5 7 1020.3 1019.4 0.0
24/06:30pm 22.4 17.6 4.9 32 8.8 SSW 19 26 10 14 1020.1 1019.2 0.0
24/06:00pm 23.3 18.6 5.2 31 9.2 SSW 19 24 10 13 1019.6 1018.7 0.0
24/05:30pm 24.1 19.2 5.0 29 9.7 S 20 28 11 15 1019.3 1018.4 0.0
24/05:00pm 24.3 20.0 5.1 29 9.8 SSE 17 28 9 15 1018.9 1018.1 0.0
24/04:30pm 24.8 20.6 5.6 29 9.9 S 17 24 9 13 1018.8 1018.0 0.0
24/04:00pm 24.3 19.9 4.6 28 9.9 S 17 28 9 15 1018.8 1018.0 0.0
24/03:30pm 25.4 22.3 5.6 28 10.2 S 11 22 6 12 1019.0 1018.2 0.0
24/03:00pm 24.6 19.8 4.9 28 10.0 S 19 24 10 13 1019.3 1018.4 0.0

Other Formats:

Comma delimited format used in spreadsheet applications
http://www.bom.gov.au/fwo/IDW60801/IDW60801.95642.axf

JavaScript Object Notation format (JSON) in row-major order
http://www.bom.gov.au/fwo/IDW60801/IDW60801.95642.json